Airfield :
LOGIN :

Register | Disclaimer

   EN    FR    IT 

 










Legend :    VFR   Marginal VFR   IFR   Intensive IFR   Very Intensive IFR
Visi :
Ceiling :
>= 8 km
>= 3000ft
5 to 8 km
1000 to 3000 ft
1500m to 5 km
500 to 1000 ft
800 to 1500m
200 to 500 ft
< 800m
< 200 ft
Symbols :   Thunderstorms  Fog  Heavy snow  Heavy precipitations  Wind > 20 kt
SIGMETs :     Misc.  Thunderstorms  Icing  Turbulence  Mountain Waves  Volcanic Ashes






- Airport Elevation : 194 ft
- IATA code : LME


LFRM - Le Mans

CURRENT METAR :
  • 261000Z AUTO 16003KT 130V200 6000 OVC004 M00/M00 Q1036 BECMG BKN008

EXPIRED METARs :
  • 260930Z AUTO 13003KT 100V170 7000 OVC005 M01/M01 Q1036 NOSIG
  • 260900Z AUTO VRB03KT 6000 OVC004 M01/M01 Q1036 TEMPO 4000 BR BECMG BKN008
  • 260830Z AUTO 13004KT 090V180 5000 BR OVC004 M01/M01 Q1036 BECMG BKN008
  • 260800Z AUTO 12003KT 090V150 4900 BR OVC004 M01/M01 Q1036 BECMG 8000 NSW BKN008

TAF AMD TAF LFRM
Valid from the 26 at 08:00 until the 27 at 06:00 UTC


260827Z 2608/2706 04004KT 8000 BKN004
TEMPO 2608/2610 4000 BR
BECMG 2610/2612 BKN008
BECMG 2612/2614 BKN013
BECMG 2618/2621 BKN008
TEMPO 2621/2623 2000 BR BKN002
TEMPO 2700/2706 0400 FG VV///



MET'MAP, your aeronautical weather chart ! - Copyright ORBIFLY December 2007 - Disclaimer

ORBIFLY MET'MAP TEAM :

Programming & Development : Alexandra Zaïnal
Original concept : Baudouin d'Aumeries
Technical & hardware support : Manuel Goepfert
Assistance : Marc-Olivier Méhu

Contact : metmap@orbifly.com




SOURCES & CREDITS :

   NOAA